Time;durP1;ratioP1;P1;durP2;ratioP2;P2;SDS_P1;SDS_P2;PMS_P1;PMS_P2;Temp;Humidity;BMP_temperature;BMP_pressure;BME280_temperature;BME280_humidity;BME280_pressure;Samples;Min_cycle;Max_cycle;Signal;HPM_P1;HPM_P2
2024/04/15 00:01:50;;;;;;;534.05;137.70;;;22.90;33.80;;;;;;5457297;26;19998;-73
2024/04/15 00:04:21;;;;;;;545.75;135.60;;;22.90;33.70;;;;;;5464855;25;20009;-72
2024/04/15 00:06:52;;;;;;;720.15;204.57;;;22.90;33.70;;;;;;5424159;26;20004;-76
2024/04/15 00:09:24;;;;;;;561.58;137.63;;;22.90;33.70;;;;;;5454747;26;20017;-73
2024/04/15 00:11:52;;;;;;;543.90;136.30;;;22.90;33.70;;;;;;5463056;26;20018;-74
2024/04/15 00:14:23;;;;;;;587.70;150.38;;;22.80;33.80;;;;;;5458603;26;20457;-74
2024/04/15 00:16:51;;;;;;;731.92;206.52;;;22.80;33.90;;;;;;5450684;26;20002;-73
2024/04/15 00:19:26;;;;;;;504.15;123.30;;;22.80;33.90;;;;;;5460726;26;20010;-74
2024/04/15 00:21:56;;;;;;;531.85;133.60;;;22.80;34.00;;;;;;5458372;26;20010;-73
2024/04/15 00:24:27;;;;;;;537.25;135.07;;;22.80;34.10;;;;;;5462894;26;20074;-73
2024/04/15 00:26:56;;;;;;;613.88;164.35;;;22.80;34.00;;;;;;5424981;26;20440;-74
2024/04/15 00:29:27;;;;;;;532.83;136.75;;;22.70;34.00;;;;;;5462945;26;20002;-73
2024/04/15 00:31:55;;;;;;;526.55;126.38;;;22.70;34.00;;;;;;5423637;26;20094;-74
2024/04/15 00:34:26;;;;;;;534.47;130.60;;;22.80;34.00;;;;;;5460109;25;20352;-72
2024/04/15 00:36:57;;;;;;;545.88;140.15;;;22.80;34.00;;;;;;5460254;26;20002;-72
2024/04/15 00:39:28;;;;;;;689.45;198.05;;;22.80;34.00;;;;;;5418297;25;20894;-73
2024/04/15 00:41:56;;;;;;;541.05;148.65;;;22.80;34.00;;;;;;5461346;26;19999;-74
2024/04/15 00:44:34;;;;;;;550.20;150.80;;;22.80;34.00;;;;;;5447409;26;20013;-72
2024/04/15 00:47:02;;;;;;;501.25;126.15;;;22.80;34.00;;;;;;5464196;26;20010;-73
2024/04/15 00:49:37;;;;;;;520.88;132.95;;;22.80;34.00;;;;;;5426601;26;19998;-71
2024/04/15 00:52:08;;;;;;;518.50;128.05;;;22.80;34.00;;;;;;5464176;26;19998;-72
2024/04/15 00:54:43;;;;;;;539.35;140.52;;;22.80;34.10;;;;;;5433213;26;20022;-73
2024/04/15 00:57:14;;;;;;;564.08;148.68;;;22.80;34.10;;;;;;5433066;25;20013;-73
2024/04/15 00:59:46;;;;;;;559.95;153.45;;;22.80;34.10;;;;;;5458074;26;20002;-72
2024/04/15 01:02:14;;;;;;;638.65;183.38;;;22.80;34.40;;;;;;5416910;26;19998;-74
2024/04/15 01:04:46;;;;;;;522.88;142.23;;;22.80;34.10;;;;;;5426072;26;20854;-73
2024/04/15 01:07:18;;;;;;;569.00;154.75;;;22.80;34.20;;;;;;5462028;26;20014;-74
2024/04/15 01:09:49;;;;;;;535.67;143.88;;;22.70;34.20;;;;;;5459988;26;20479;-74
2024/04/15 01:12:17;;;;;;;716.67;212.77;;;22.70;34.10;;;;;;5437929;25;20037;-72
2024/04/15 01:14:48;;;;;;;547.58;147.55;;;22.70;34.20;;;;;;5422053;26;19998;-73
2024/04/15 01:17:16;;;;;;;516.92;131.02;;;22.70;34.10;;;;;;5434382;26;20451;-74
2024/04/15 01:19:47;;;;;;;539.70;135.95;;;22.80;34.20;;;;;;5429794;26;20017;-73
2024/04/15 01:22:20;;;;;;;719.25;214.25;;;22.80;34.10;;;;;;5432068;26;20006;-73
2024/04/15 01:24:54;;;;;;;533.05;137.10;;;22.80;34.10;;;;;;5456495;26;20013;-75
2024/04/15 01:27:22;;;;;;;518.10;128.70;;;22.80;34.00;;;;;;5461629;26;20017;-74
2024/04/15 01:29:53;;;;;;;509.00;131.88;;;22.80;33.90;;;;;;5457773;26;20010;-73
2024/04/15 01:32:21;;;;;;;545.33;162.15;;;22.80;33.90;;;;;;5461709;26;20010;-72
2024/04/15 01:34:52;;;;;;;725.53;245.30;;;22.80;33.90;;;;;;5448610;26;20448;-73
2024/04/15 01:37:20;;;;;;;635.95;235.85;;;22.80;33.90;;;;;;5459026;26;20082;-73
2024/04/15 01:39:53;;;;;;;568.55;201.05;;;22.80;34.00;;;;;;5405213;26;20724;-72
2024/04/15 01:42:21;;;;;;;535.85;137.85;;;22.80;34.00;;;;;;5460067;26;20099;-74
2024/04/15 01:44:52;;;;;;;543.83;137.65;;;22.70;33.90;;;;;;5419649;26;20010;-72
2024/04/15 01:47:20;;;;;;;508.77;127.32;;;22.60;33.90;;;;;;5452142;26;20006;-72
2024/04/15 01:49:52;;;;;;;522.85;130.35;;;22.60;34.00;;;;;;5450930;26;20044;-73
2024/04/15 01:52:20;;;;;;;511.73;128.88;;;22.50;34.00;;;;;;5461469;26;20030;-73
2024/04/15 01:54:55;;;;;;;529.78;135.13;;;22.50;34.10;;;;;;5461919;26;20002;-73
2024/04/15 01:57:24;;;;;;;739.55;237.02;;;22.40;34.10;;;;;;5453195;26;20046;-73
2024/04/15 01:59:54;;;;;;;522.08;125.63;;;22.40;34.20;;;;;;5460540;26;20804;-73
2024/04/15 02:02:22;;;;;;;514.50;129.02;;;22.40;34.20;;;;;;5421582;26;20006;-74
2024/04/15 02:04:54;;;;;;;515.67;121.00;;;22.40;34.30;;;;;;5421589;26;20479;-72
2024/04/15 02:07:22;;;;;;;525.08;124.18;;;22.30;34.30;;;;;;5461743;26;20010;-73
2024/04/15 02:09:56;;;;;;;536.20;136.75;;;22.30;34.40;;;;;;5442389;25;20515;-73
2024/04/15 02:12:25;;;;;;;518.92;119.35;;;22.30;34.40;;;;;;5429255;26;20004;-73
2024/04/15 02:14:55;;;;;;;516.75;117.38;;;22.30;35.10;;;;;;5462418;26;19994;-73
2024/04/15 02:17:24;;;;;;;510.42;117.82;;;22.30;34.60;;;;;;5459499;26;20016;-72
2024/04/15 02:19:55;;;;;;;504.73;115.88;;;22.40;34.50;;;;;;5465113;26;20012;-72
2024/04/15 02:22:23;;;;;;;726.05;204.10;;;22.30;35.10;;;;;;5413796;25;20002;-72
2024/04/15 02:24:56;;;;;;;514.45;118.82;;;22.40;34.40;;;;;;5464415;26;20048;-74
2024/04/15 02:27:24;;;;;;;604.67;154.00;;;22.30;34.40;;;;;;5418294;26;20398;-73
2024/04/15 02:29:55;;;;;;;515.58;120.05;;;22.40;34.40;;;;;;5461092;26;20070;-71
2024/04/15 02:32:23;;;;;;;519.95;120.32;;;22.40;34.40;;;;;;5458585;25;20002;-72
2024/04/15 02:34:54;;;;;;;807.60;229.48;;;22.40;34.40;;;;;;5407875;26;20123;-72
2024/04/15 02:37:22;;;;;;;521.92;119.38;;;22.40;34.60;;;;;;5429559;26;20086;-72
2024/04/15 02:39:55;;;;;;;530.10;122.85;;;22.30;34.60;;;;;;5458269;26;20014;-73
2024/04/15 02:42:23;;;;;;;537.10;124.97;;;22.30;34.70;;;;;;5450557;26;20002;-72
2024/04/15 02:44:54;;;;;;;509.40;117.18;;;22.30;34.70;;;;;;5458735;26;20051;-73
2024/04/15 02:47:22;;;;;;;508.08;117.65;;;22.30;34.70;;;;;;5462980;26;20016;-73
2024/04/15 02:49:53;;;;;;;619.83;154.70;;;22.30;34.80;;;;;;5449196;26;20010;-71
2024/04/15 02:52:21;;;;;;;523.97;117.80;;;22.20;34.60;;;;;;5452268;26;20038;-72
2024/04/15 02:54:55;;;;;;;550.53;124.00;;;22.20;34.60;;;;;;5455427;26;20082;-72
2024/04/15 02:57:23;;;;;;;545.25;139.38;;;22.20;34.60;;;;;;5456684;26;20103;-74
2024/04/15 02:59:54;;;;;;;531.38;120.60;;;22.20;34.60;;;;;;5463824;26;20020;-73
2024/04/15 03:02:22;;;;;;;524.42;120.43;;;22.30;34.70;;;;;;5466633;26;20105;-73
2024/04/15 03:04:53;;;;;;;587.00;149.20;;;22.30;34.60;;;;;;5423607;26;20531;-72
2024/04/15 03:07:22;;;;;;;535.65;122.97;;;22.30;34.60;;;;;;5452984;26;20014;-73
2024/04/15 03:09:58;;;;;;;541.05;126.47;;;22.30;34.60;;;;;;5453322;26;20013;-73
2024/04/15 03:12:26;;;;;;;514.22;116.85;;;22.30;34.60;;;;;;5457655;26;20008;-73
2024/04/15 03:14:58;;;;;;;506.83;116.05;;;22.20;34.50;;;;;;5456632;26;20070;-73
2024/04/15 03:17:26;;;;;;;546.65;123.30;;;22.20;34.50;;;;;;5458617;26;20027;-73
2024/04/15 03:19:57;;;;;;;676.25;185.70;;;22.20;34.50;;;;;;5442054;26;20002;-73
2024/04/15 03:22:25;;;;;;;580.03;136.15;;;22.20;34.60;;;;;;5422871;26;20002;-73
2024/04/15 03:24:59;;;;;;;530.38;120.18;;;22.20;34.60;;;;;;5458479;26;19994;-73
2024/04/15 03:27:27;;;;;;;569.08;130.80;;;22.20;34.70;;;;;;5438350;25;20078;-73
2024/04/15 03:29:58;;;;;;;516.92;118.53;;;22.20;34.60;;;;;;5456180;26;20021;-72
2024/04/15 03:32:26;;;;;;;561.90;151.02;;;22.20;34.60;;;;;;5461633;26;21163;-73
2024/04/15 03:34:57;;;;;;;521.47;137.93;;;22.20;34.60;;;;;;5423807;26;20462;-73
2024/04/15 03:37:27;;;;;;;539.60;123.47;;;22.20;34.60;;;;;;5461022;26;20013;-74
2024/04/15 03:40:02;;;;;;;548.05;125.68;;;22.20;34.70;;;;;;5424061;26;19998;-73
2024/04/15 03:42:33;;;;;;;628.22;151.95;;;22.20;34.60;;;;;;5434672;26;20086;-71
2024/04/15 03:45:07;;;;;;;533.92;121.47;;;22.10;34.60;;;;;;5461491;26;20013;-72
2024/04/15 03:47:35;;;;;;;571.72;128.73;;;22.10;34.70;;;;;;5455355;26;20715;-74
2024/04/15 03:50:06;;;;;;;559.88;135.82;;;22.10;34.60;;;;;;5461125;26;20464;-73
2024/04/15 03:52:34;;;;;;;601.85;142.13;;;22.10;34.60;;;;;;5458391;26;20025;-73
2024/04/15 03:55:09;;;;;;;701.03;191.90;;;22.10;34.60;;;;;;5446207;26;19998;-73
2024/04/15 03:57:37;;;;;;;536.85;122.82;;;22.10;34.70;;;;;;5458001;26;20002;-72
2024/04/15 04:00:10;;;;;;;525.08;120.65;;;22.10;34.70;;;;;;5459989;26;20005;-73
2024/04/15 04:02:38;;;;;;;554.70;126.93;;;22.10;34.70;;;;;;5463220;26;20006;-73
2024/04/15 04:05:09;;;;;;;527.42;118.50;;;22.10;34.70;;;;;;5446471;25;21373;-73
2024/04/15 04:07:37;;;;;;;527.08;117.80;;;22.10;34.70;;;;;;5427455;26;20005;-72
2024/04/15 04:10:14;;;;;;;553.97;127.30;;;22.00;34.70;;;;;;5454051;26;20091;-73
2024/04/15 04:12:42;;;;;;;539.65;120.93;;;22.10;34.80;;;;;;5457754;26;19998;-73
2024/04/15 04:15:13;;;;;;;547.90;123.72;;;22.10;34.80;;;;;;5451427;26;20002;-73
2024/04/15 04:17:44;;;;;;;540.53;123.30;;;22.10;34.80;;;;;;5461107;26;20036;-73
2024/04/15 04:20:15;;;;;;;529.72;119.47;;;22.00;34.70;;;;;;5455237;26;20004;-74
2024/04/15 04:22:43;;;;;;;578.50;135.25;;;21.90;34.80;;;;;;5453339;26;20014;-73
2024/04/15 04:25:17;;;;;;;532.88;116.60;;;21.90;34.90;;;;;;5467250;25;20019;-74
2024/04/15 04:27:46;;;;;;;562.58;125.28;;;21.90;35.00;;;;;;5415552;26;20099;-74
2024/04/15 04:30:17;;;;;;;531.25;119.05;;;21.90;34.90;;;;;;5428581;26;20002;-74
2024/04/15 04:32:45;;;;;;;568.85;131.85;;;21.90;35.50;;;;;;5459524;26;20012;-72
2024/04/15 04:35:17;;;;;;;551.85;123.75;;;21.90;34.90;;;;;;5457151;26;20739;-73
2024/04/15 04:37:45;;;;;;;554.90;125.35;;;21.90;34.90;;;;;;5451951;26;20026;-74
2024/04/15 04:40:18;;;;;;;545.70;122.75;;;22.00;35.10;;;;;;5441807;25;20013;-74
2024/04/15 04:42:57;;;;;;;628.78;152.48;;;22.00;35.00;;;;;;5452271;26;20360;-73
2024/04/15 04:45:26;;;;;;;538.42;122.20;;;22.00;34.90;;;;;;5466606;26;20342;-73
2024/04/15 04:47:57;;;;;;;530.40;118.07;;;22.10;34.90;;;;;;5415437;26;20002;-73
2024/04/15 04:50:25;;;;;;;549.75;122.72;;;22.00;34.90;;;;;;5460299;26;20010;-71
2024/04/15 04:52:56;;;;;;;722.20;193.35;;;22.10;35.00;;;;;;5444386;26;20074;-73
2024/04/15 04:55:31;;;;;;;517.08;118.78;;;22.10;35.00;;;;;;5453453;26;20005;-74
2024/04/15 04:58:13;;;;;;;619.60;149.35;;;22.10;35.10;;;;;;5449579;26;20016;-76
2024/04/15 05:00:41;;;;;;;532.22;120.80;;;22.10;35.00;;;;;;5458691;26;19995;-73
2024/04/15 05:03:13;;;;;;;560.45;132.88;;;22.10;35.00;;;;;;5407705;26;20006;-64
2024/04/15 05:05:41;;;;;;;562.00;132.70;;;22.20;35.00;;;;;;5409363;26;20467;-63
2024/04/15 05:08:12;;;;;;;610.65;154.02;;;22.40;35.10;;;;;;5453124;26;20014;-67
2024/04/15 05:10:43;;;;;;;566.05;136.57;;;22.70;35.20;;;;;;5439560;26;20046;-62
2024/04/15 05:13:14;;;;;;;582.53;140.23;;;22.90;35.30;;;;;;5444537;25;21782;-64
2024/04/15 05:15:43;;;;;;;648.85;162.82;;;23.10;34.90;;;;;;5433932;26;20010;-67
2024/04/15 05:18:14;;;;;;;551.42;135.20;;;23.20;34.80;;;;;;5475261;25;20016;-64
2024/04/15 05:20:42;;;;;;;575.88;138.93;;;23.30;34.70;;;;;;5463655;25;20662;-63
2024/04/15 05:23:14;;;;;;;555.25;145.70;;;23.40;34.60;;;;;;5459792;25;20586;-63
2024/04/15 05:25:44;;;;;;;553.25;136.10;;;23.50;34.50;;;;;;5466359;25;20083;-63
2024/04/15 05:28:15;;;;;;;569.38;140.45;;;23.50;34.50;;;;;;5451436;25;20290;-64
2024/04/15 05:30:44;;;;;;;562.47;142.05;;;23.40;34.40;;;;;;5462863;25;20009;-60
2024/04/15 05:33:16;;;;;;;582.05;153.32;;;23.40;34.40;;;;;;5464971;25;21214;-59
2024/04/15 05:35:44;;;;;;;579.30;180.13;;;23.50;34.40;;;;;;5449282;26;20007;-62
2024/04/15 05:38:18;;;;;;;597.03;152.30;;;23.50;34.40;;;;;;5442840;26;20735;-58
2024/04/15 05:40:49;;;;;;;573.05;152.10;;;23.50;34.50;;;;;;5446121;25;20054;-57
2024/04/15 05:43:21;;;;;;;565.60;140.70;;;23.60;34.60;;;;;;5410613;26;20019;-53
2024/04/15 05:45:49;;;;;;;546.78;137.32;;;23.70;34.60;;;;;;5439084;25;20009;-64
2024/04/15 05:48:19;;;;;;;524.17;133.93;;;23.90;34.50;;;;;;5434126;25;20039;-63
2024/04/15 05:50:48;;;;;;;551.85;140.77;;;24.10;34.50;;;;;;5434985;26;20134;-66
2024/04/15 05:53:19;;;;;;;573.72;156.45;;;24.30;34.40;;;;;;5434898;25;20692;-66
2024/04/15 05:55:49;;;;;;;538.03;141.27;;;24.60;34.30;;;;;;5437490;26;20338;-63
2024/04/15 05:58:20;;;;;;;608.40;168.82;;;24.70;34.10;;;;;;5441250;26;20021;-63
2024/04/15 06:00:49;;;;;;;556.60;146.77;;;24.60;33.90;;;;;;5444547;25;20528;-63
2024/04/15 06:03:20;;;;;;;577.95;161.40;;;24.60;33.90;;;;;;5424322;26;20108;-60
2024/04/15 06:05:50;;;;;;;556.80;148.55;;;24.60;34.00;;;;;;5442937;25;20709;-58
2024/04/15 06:08:21;;;;;;;545.83;145.52;;;24.70;34.10;;;;;;5437713;26;20619;-60
2024/04/15 06:10:52;;;;;;;548.55;147.77;;;24.80;34.10;;;;;;5436727;26;20365;-59
2024/04/15 06:13:23;;;;;;;557.63;152.35;;;24.80;34.10;;;;;;5425527;25;20086;-60
2024/04/15 06:15:51;;;;;;;564.92;152.57;;;24.90;34.10;;;;;;5441732;26;20446;-60
2024/04/15 06:18:22;;;;;;;538.67;147.30;;;24.90;34.10;;;;;;5448594;25;20526;-60
2024/04/15 06:20:50;;;;;;;554.03;153.98;;;25.10;34.20;;;;;;5431389;26;20014;-59
2024/04/15 06:23:20;;;;;;;594.40;184.88;;;25.20;34.20;;;;;;5432263;26;19999;-63
2024/04/15 06:25:53;;;;;;;538.08;153.90;;;25.60;34.30;;;;;;5409592;26;20013;-61
2024/04/15 06:28:24;;;;;;;572.08;166.57;;;25.90;34.10;;;;;;5426478;26;19998;-61
2024/04/15 06:30:52;;;;;;;546.25;159.55;;;26.00;33.80;;;;;;5443265;25;20028;-59
2024/04/15 06:33:23;;;;;;;628.67;205.02;;;26.00;33.60;;;;;;5431403;26;20690;-59
2024/04/15 06:35:51;;;;;;;590.55;175.70;;;26.00;34.10;;;;;;5444993;25;20109;-62
2024/04/15 06:38:22;;;;;;;577.10;169.52;;;25.90;33.50;;;;;;5440585;25;20022;-60
2024/04/15 06:40:53;;;;;;;559.92;166.65;;;25.90;33.60;;;;;;5436595;25;20480;-59
2024/04/15 06:43:23;;;;;;;742.28;247.23;;;25.90;33.70;;;;;;5432786;25;20002;-60
2024/04/15 06:45:51;;;;;;;575.60;171.82;;;25.90;33.70;;;;;;5439684;25;20079;-60
2024/04/15 06:48:22;;;;;;;548.85;158.07;;;26.00;33.60;;;;;;5447296;25;20047;-59
2024/04/15 06:50:51;;;;;;;578.13;174.30;;;26.00;33.60;;;;;;5439985;25;20011;-60
2024/04/15 06:53:21;;;;;;;748.20;253.82;;;26.00;33.50;;;;;;5435232;25;20003;-58
2024/04/15 06:55:54;;;;;;;565.33;165.30;;;25.90;33.50;;;;;;5440996;25;20018;-61
2024/04/15 06:58:26;;;;;;;577.92;173.45;;;25.90;33.70;;;;;;5438293;26;20003;-60
2024/04/15 07:00:55;;;;;;;555.47;167.00;;;26.00;33.70;;;;;;5448186;25;20029;-59
2024/04/15 07:03:26;;;;;;;587.08;175.40;;;26.20;33.80;;;;;;5439311;26;20021;-59
2024/04/15 07:05:54;;;;;;;560.58;169.27;;;26.40;33.70;;;;;;5442331;25;20806;-59
2024/04/15 07:08:25;;;;;;;551.75;174.15;;;26.70;33.80;;;;;;5440551;25;20617;-60
2024/04/15 07:10:55;;;;;;;554.25;179.23;;;27.10;33.70;;;;;;5437475;26;20007;-63
2024/04/15 07:13:26;;;;;;;588.25;195.63;;;27.60;33.60;;;;;;5441897;26;20088;-61
2024/04/15 07:15:55;;;;;;;594.65;217.32;;;27.90;33.10;;;;;;5429797;25;20043;-60
2024/04/15 07:18:26;;;;;;;573.45;199.35;;;27.80;32.80;;;;;;5446674;25;20082;-59
2024/04/15 07:20:53;;;;;;;550.75;179.65;;;27.60;32.80;;;;;;5436277;25;20872;-60
2024/04/15 07:23:24;;;;;;;572.47;187.68;;;27.50;33.00;;;;;;5446201;26;20014;-62
2024/04/15 07:25:59;;;;;;;745.42;278.25;;;27.70;33.40;;;;;;5433343;25;20004;-57
2024/04/15 07:28:30;;;;;;;601.78;202.60;;;28.30;33.50;;;;;;5437828;25;20010;-60
2024/04/15 07:30:59;;;;;;;568.63;204.98;;;29.50;33.80;;;;;;5438407;26;20002;-62
2024/04/15 07:33:30;;;;;;;653.47;250.20;;;30.70;32.90;;;;;;5442712;25;20029;-62
2024/04/15 07:36:00;;;;;;;730.00;298.42;;;31.10;32.00;;;;;;5431147;25;20000;-61
2024/04/15 07:38:31;;;;;;;574.72;222.63;;;31.00;31.60;;;;;;5415491;26;20007;-62
2024/04/15 07:41:02;;;;;;;570.30;222.15;;;30.80;31.50;;;;;;5419480;26;20003;-59
2024/04/15 07:43:33;;;;;;;556.17;211.10;;;30.30;31.30;;;;;;5455651;25;20075;-59
2024/04/15 07:46:01;;;;;;;564.53;211.23;;;29.90;31.50;;;;;;5456242;26;20056;-61
2024/04/15 07:48:32;;;;;;;777.42;302.50;;;29.50;31.70;;;;;;5463322;25;20019;-60
2024/04/15 07:51:00;;;;;;;568.67;212.27;;;29.20;32.00;;;;;;5475829;25;20013;-62
2024/04/15 07:53:31;;;;;;;704.42;262.50;;;29.00;32.10;;;;;;5479341;25;20047;-60
2024/04/15 07:56:01;;;;;;;573.97;212.23;;;28.80;32.20;;;;;;5479478;25;20022;-62
2024/04/15 07:58:34;;;;;;;560.53;197.40;;;28.60;32.20;;;;;;5480007;25;20006;-59
2024/04/15 08:01:02;;;;;;;563.80;201.40;;;28.50;32.30;;;;;;5471879;25;19998;-59
2024/04/15 08:03:33;;;;;;;541.03;192.27;;;28.50;32.50;;;;;;5449701;25;20545;-57
2024/04/15 08:06:02;;;;;;;563.38;199.10;;;28.40;32.50;;;;;;5454858;26;20029;-60
2024/04/15 08:08:33;;;;;;;580.33;208.23;;;28.40;32.50;;;;;;5450333;26;20010;-58
2024/04/15 08:11:06;;;;;;;738.17;278.25;;;28.30;32.30;;;;;;5448046;25;20034;-59
2024/04/15 08:13:37;;;;;;;561.08;190.27;;;28.20;32.50;;;;;;5467541;25;20012;-59
2024/04/15 08:16:06;;;;;;;597.25;206.35;;;28.00;32.40;;;;;;5473937;25;20502;-59
2024/04/15 08:18:37;;;;;;;561.22;189.25;;;27.80;32.50;;;;;;5459434;26;20006;-59
2024/04/15 08:21:05;;;;;;;579.38;190.57;;;27.70;32.70;;;;;;5445604;26;20086;-59
2024/04/15 08:23:37;;;;;;;595.58;203.90;;;27.60;32.80;;;;;;5441892;26;20072;-56
2024/04/15 08:26:08;;;;;;;574.63;193.25;;;27.60;32.90;;;;;;5450297;26;20112;-59
2024/04/15 08:28:39;;;;;;;636.85;211.52;;;27.70;33.00;;;;;;5452344;25;20023;-59
2024/04/15 08:31:07;;;;;;;578.92;193.13;;;27.70;32.90;;;;;;5456866;25;20166;-59
2024/04/15 08:33:38;;;;;;;745.95;269.02;;;27.70;32.80;;;;;;5439687;26;20010;-60
2024/04/15 08:36:08;;;;;;;598.13;198.00;;;27.70;32.80;;;;;;5449819;25;20021;-59
2024/04/15 08:38:44;;;;;;;545.08;183.60;;;27.70;33.00;;;;;;5455173;26;20002;-59
2024/04/15 08:41:20;;;;;;;582.00;192.45;;;27.70;33.00;;;;;;5427725;26;20039;-61
2024/04/15 08:43:50;;;;;;;;;;;27.80;33.00;;;;;;5469681;25;19998;-60
2024/04/15 08:46:23;;;;;;;638.42;213.55;;;27.80;32.60;;;;;;5469581;25;19932;-62
2024/04/15 08:48:55;;;;;;;538.42;176.60;;;27.30;32.60;;;;;;5478141;25;20016;-61
2024/04/15 08:51:24;;;;;;;542.83;169.25;;;26.90;33.00;;;;;;5456871;26;20042;-62
2024/04/15 08:53:55;;;;;;;548.25;171.63;;;26.70;33.40;;;;;;5441007;25;20018;-60
2024/04/15 08:56:26;;;;;;;710.83;251.30;;;26.60;33.50;;;;;;5470202;25;20007;-62
2024/04/15 08:58:59;;;;;;;559.03;172.48;;;26.60;33.90;;;;;;5463611;26;20464;-59
2024/04/15 09:01:31;;;;;;;568.35;175.80;;;26.50;33.70;;;;;;5467463;25;20018;-63
2024/04/15 09:04:02;;;;;;;556.20;167.45;;;26.40;33.60;;;;;;5443922;26;20013;-61
2024/04/15 09:06:31;;;;;;;744.78;246.57;;;26.30;33.70;;;;;;5467706;25;20009;-62
2024/04/15 09:09:01;;;;;;;696.72;233.32;;;26.30;33.80;;;;;;5473779;26;20221;-66
2024/04/15 09:11:36;;;;;;;549.15;163.95;;;26.20;33.80;;;;;;5448602;26;20006;-62
2024/04/15 09:14:07;;;;;;;542.38;159.52;;;26.00;34.10;;;;;;5475808;25;20124;-60
2024/04/15 09:16:35;;;;;;;562.42;161.93;;;25.70;34.20;;;;;;5474972;25;20546;-63
2024/04/15 09:19:09;;;;;;;698.08;227.90;;;25.40;34.50;;;;;;5459705;25;20005;-60
2024/04/15 09:21:38;;;;;;;550.25;162.35;;;25.20;34.90;;;;;;5481316;25;20027;-59
2024/04/15 09:24:12;;;;;;;563.53;160.70;;;24.90;35.20;;;;;;5469322;25;20049;-59
2024/04/15 09:26:43;;;;;;;541.47;153.27;;;24.70;35.70;;;;;;5474060;26;20013;-65
2024/04/15 09:29:14;;;;;;;551.95;154.80;;;24.60;36.10;;;;;;5477824;25;20157;-61
2024/04/15 09:31:43;;;;;;;543.75;147.55;;;24.50;36.20;;;;;;5474554;25;20009;-60
2024/04/15 09:34:13;;;;;;;578.63;159.05;;;24.60;36.30;;;;;;5483621;25;20011;-62
2024/04/15 09:36:56;;;;;;;546.30;153.27;;;24.70;36.20;;;;;;5464857;25;20026;-60
2024/04/15 09:39:28;;;;;;;587.75;165.50;;;24.90;36.00;;;;;;5418983;26;20006;-61
2024/04/15 09:42:00;;;;;;;554.40;165.15;;;24.90;35.80;;;;;;5440602;25;20157;-62
2024/04/15 09:44:32;;;;;;;592.17;166.02;;;24.80;35.80;;;;;;5445903;26;20069;-59
2024/04/15 09:47:02;;;;;;;548.03;149.40;;;24.80;35.80;;;;;;5458718;26;20071;-61
2024/04/15 09:49:35;;;;;;;551.17;153.05;;;24.70;35.80;;;;;;5447515;26;20551;-60
2024/04/15 09:52:06;;;;;;;541.55;148.95;;;24.70;35.80;;;;;;5452103;26;20428;-60
2024/04/15 09:54:45;;;;;;;570.95;185.18;;;24.60;36.00;;;;;;5460318;25;20001;-61
2024/04/15 09:57:20;;;;;;;557.00;153.93;;;24.30;36.00;;;;;;5475331;25;20049;-66
2024/04/15 09:59:58;;;;;;;785.30;257.23;;;23.80;36.40;;;;;;5460652;25;20010;-62
2024/04/15 10:02:29;;;;;;;577.50;152.30;;;23.40;36.80;;;;;;5451343;26;20025;-62
2024/04/15 10:05:06;;;;;;;651.83;212.65;;;23.10;37.20;;;;;;5448687;26;20002;-66
2024/04/15 10:07:36;;;;;;;575.63;149.02;;;22.80;37.70;;;;;;5449365;26;20013;-63
2024/04/15 10:10:08;;;;;;;560.72;144.80;;;22.50;38.00;;;;;;5438206;25;20835;-60
2024/04/15 10:12:39;;;;;;;544.90;133.85;;;22.30;38.30;;;;;;5449522;26;20421;-60
2024/04/15 10:15:10;;;;;;;624.88;226.68;;;22.10;38.70;;;;;;5446842;26;20480;-63
2024/04/15 10:17:39;;;;;;;730.00;248.77;;;22.00;38.80;;;;;;5434425;26;20066;-59
2024/04/15 10:20:11;;;;;;;569.13;180.02;;;21.80;39.00;;;;;;5461185;25;20964;-60
2024/04/15 10:22:39;;;;;;;575.03;149.73;;;21.70;39.10;;;;;;5444069;26;20045;-62
2024/04/15 10:25:11;;;;;;;541.42;131.82;;;21.60;39.30;;;;;;5450858;25;20014;-61
2024/04/15 10:27:42;;;;;;;734.88;231.35;;;21.60;39.80;;;;;;5461576;25;20409;-67
2024/04/15 10:30:21;;;;;;;564.08;165.98;;;21.80;40.10;;;;;;5478227;25;19994;-63
2024/04/15 10:32:54;;;;;;;584.60;149.82;;;21.90;40.30;;;;;;5477244;25;20015;-63
2024/04/15 10:35:28;;;;;;;556.92;132.73;;;22.00;40.20;;;;;;5447407;26;20020;-65
2024/04/15 10:37:59;;;;;;;575.80;158.90;;;22.00;40.30;;;;;;5469962;25;20024;-63
2024/04/15 10:40:31;;;;;;;575.30;161.43;;;21.90;40.50;;;;;;5479683;25;20014;-59
2024/04/15 10:43:13;;;;;;;569.72;139.18;;;21.80;40.70;;;;;;5439952;26;20017;-59
2024/04/15 10:45:45;;;;;;;582.85;146.75;;;21.70;40.80;;;;;;5472013;25;20058;-61
2024/04/15 10:48:13;;;;;;;603.58;155.95;;;21.60;41.10;;;;;;5468472;25;20102;-61
2024/04/15 10:50:44;;;;;;;585.70;179.07;;;21.50;41.20;;;;;;5474439;25;20014;-62
2024/04/15 10:53:12;;;;;;;605.03;154.07;;;21.50;41.40;;;;;;5447908;26;20042;-62
2024/04/15 10:55:45;;;;;;;555.53;134.18;;;21.50;41.50;;;;;;5439645;26;20015;-64
2024/04/15 10:58:18;;;;;;;603.97;151.13;;;21.50;41.60;;;;;;5413003;26;20010;-66
2024/04/15 11:00:51;;;;;;;562.65;131.70;;;21.40;41.80;;;;;;5402818;26;20030;-67
2024/04/15 11:03:20;;;;;;;573.72;129.38;;;21.40;41.80;;;;;;5442954;25;20085;-72
2024/04/15 11:05:52;;;;;;;568.08;155.35;;;21.30;41.90;;;;;;5442705;25;20002;-66
2024/04/15 11:08:21;;;;;;;696.47;205.98;;;21.30;42.10;;;;;;5425808;25;20002;-66
2024/04/15 11:10:52;;;;;;;562.70;148.38;;;21.20;42.00;;;;;;5464118;25;20003;-67
2024/04/15 11:13:23;;;;;;;530.22;117.22;;;21.10;43.00;;;;;;5472940;25;20788;-68
2024/04/15 11:15:55;;;;;;;555.65;149.50;;;21.00;42.60;;;;;;5437242;25;20021;-66
2024/04/15 11:18:24;;;;;;;737.25;218.88;;;21.00;42.60;;;;;;5452339;25;19998;-67
2024/04/15 11:21:02;;;;;;;555.72;122.63;;;21.00;42.70;;;;;;5468593;25;20081;-68
2024/04/15 11:23:34;;;;;;;554.63;124.47;;;20.90;42.80;;;;;;5432462;25;20017;-69
2024/04/15 11:26:06;;;;;;;587.10;177.63;;;20.90;43.00;;;;;;5433972;26;20018;-68
2024/04/15 11:28:41;;;;;;;737.38;203.50;;;20.90;43.10;;;;;;5436936;26;20006;-71
2024/04/15 11:31:10;;;;;;;604.77;137.50;;;20.90;43.30;;;;;;5443020;25;20018;-70
2024/04/15 11:33:42;;;;;;;574.53;159.27;;;20.90;43.30;;;;;;5440139;26;20006;-69
2024/04/15 11:36:16;;;;;;;581.05;141.30;;;20.80;43.40;;;;;;5431016;25;20006;-70
2024/04/15 11:38:47;;;;;;;582.00;142.85;;;20.80;43.60;;;;;;5440321;25;20009;-72
2024/04/15 11:41:16;;;;;;;629.00;145.85;;;20.90;43.80;;;;;;5458604;25;21066;-68
2024/04/15 11:43:50;;;;;;;541.38;126.13;;;21.00;43.90;;;;;;5477316;25;19997;-72
2024/04/15 11:46:19;;;;;;;589.85;141.90;;;21.10;43.90;;;;;;5468606;26;20051;-65
2024/04/15 11:48:52;;;;;;;554.65;134.50;;;21.10;44.00;;;;;;5437752;25;20674;-69
2024/04/15 11:51:20;;;;;;;539.45;127.38;;;21.20;44.10;;;;;;5429774;26;20042;-66
2024/04/15 11:53:53;;;;;;;551.55;126.47;;;21.20;44.10;;;;;;5428281;25;20002;-68
2024/04/15 11:56:22;;;;;;;584.97;185.25;;;21.10;44.10;;;;;;5439778;25;20005;-67
2024/04/15 11:58:58;;;;;;;547.45;127.07;;;21.00;44.20;;;;;;5472764;25;20005;-70
2024/04/15 12:01:27;;;;;;;600.58;140.82;;;20.90;44.40;;;;;;5434567;25;20001;-68
2024/04/15 12:03:59;;;;;;;562.20;126.15;;;21.00;44.50;;;;;;5437926;25;20009;-69
2024/04/15 12:06:28;;;;;;;615.92;148.98;;;21.00;44.60;;;;;;5431380;26;20042;-70
2024/04/15 12:09:00;;;;;;;548.70;126.78;;;21.10;44.70;;;;;;5470800;25;20085;-70
2024/04/15 12:11:28;;;;;;;567.40;126.70;;;21.10;44.70;;;;;;5439246;26;20025;-68
2024/04/15 12:14:02;;;;;;;563.60;128.05;;;21.20;44.80;;;;;;5444547;25;19998;-62
2024/04/15 12:16:30;;;;;;;535.92;120.30;;;21.10;44.80;;;;;;5417887;25;20448;-63
2024/04/15 12:19:02;;;;;;;653.35;158.07;;;21.10;44.80;;;;;;5439989;26;20031;-64
2024/04/15 12:21:30;;;;;;;574.72;131.75;;;21.00;44.90;;;;;;5409268;26;22510;-63
2024/04/15 12:24:04;;;;;;;592.03;134.55;;;20.90;44.90;;;;;;5436799;26;20606;-65
2024/04/15 12:26:32;;;;;;;572.60;128.85;;;20.90;45.10;;;;;;5436174;26;20002;-67